createdAt,value
2018-09-13T00:00:45.731Z,99271.89
2018-09-13T00:03:14.124Z,99276.44
2018-09-13T00:05:42.551Z,99266.17
2018-09-13T00:08:11.461Z,99275.15
2018-09-13T00:10:39.851Z,99273.70
2018-09-13T00:13:08.212Z,99266.83
2018-09-13T00:15:36.574Z,99262.20
2018-09-13T00:18:04.940Z,99259.59
2018-09-13T00:20:33.346Z,99259.94
2018-09-13T00:23:01.652Z,99257.86
2018-09-13T00:25:30.023Z,99258.33
2018-09-13T00:27:58.366Z,99264.20
2018-09-13T00:30:26.733Z,99262.34
2018-09-13T00:32:55.098Z,99261.35
2018-09-13T00:44:31.187Z,99245.28
2018-09-13T00:46:59.512Z,99244.16
2018-09-13T00:49:27.877Z,99244.00
2018-09-13T00:51:56.270Z,99242.84
2018-09-13T00:54:24.600Z,99242.08
2018-09-13T00:56:52.999Z,99237.77
2018-09-13T00:59:21.326Z,99244.50
2018-09-13T01:01:49.671Z,99248.70
2018-09-13T01:04:17.992Z,99249.22
2018-09-13T01:06:46.516Z,99248.41
2018-09-13T01:09:14.855Z,99253.52
2018-09-13T01:11:43.171Z,99249.17
2018-09-13T01:14:18.260Z,99255.19
2018-09-13T01:16:47.196Z,99257.59
2018-09-13T01:19:15.574Z,99252.58
2018-09-13T01:21:43.899Z,99254.11
2018-09-13T01:24:12.248Z,99253.25
2018-09-13T01:26:40.625Z,99247.63
2018-09-13T01:29:09.011Z,99251.92
2018-09-13T01:31:37.375Z,99249.31
2018-09-13T01:34:05.707Z,99256.38
2018-09-13T01:36:34.199Z,99254.09
2018-09-13T01:39:02.524Z,99249.66
2018-09-13T01:41:30.926Z,99246.37
2018-09-13T01:43:59.254Z,99249.88
2018-09-13T01:46:27.659Z,99254.55
2018-09-13T01:48:56.018Z,99252.58
2018-09-13T01:51:24.338Z,99250.41
2018-09-13T01:53:52.792Z,99251.77
2018-09-13T01:56:21.144Z,99239.55
2018-09-13T01:58:49.471Z,99244.16
2018-09-13T02:01:17.806Z,99245.36
2018-09-13T02:03:46.230Z,99246.03
2018-09-13T02:06:14.585Z,99235.42
2018-09-13T02:08:43.160Z,99230.87
2018-09-13T02:11:11.585Z,99227.68
2018-09-13T02:13:39.916Z,99228.70
2018-09-13T02:16:08.286Z,99219.01
2018-09-13T02:18:36.589Z,99217.58
2018-09-13T02:21:04.931Z,99212.06
2018-09-13T02:23:33.250Z,99206.68
2018-09-13T02:26:01.616Z,99211.56
2018-09-13T02:28:29.987Z,99210.89
2018-09-13T02:30:58.317Z,99212.37
2018-09-13T02:33:26.771Z,99223.83
2018-09-13T02:35:55.116Z,99221.21
2018-09-13T02:38:23.418Z,99215.17
2018-09-13T02:40:51.839Z,99209.83
2018-09-13T02:43:20.244Z,99206.64
2018-09-13T02:45:48.749Z,99212.06
2018-09-13T02:48:17.100Z,99214.88
2018-09-13T02:50:45.506Z,99212.36
2018-09-13T02:53:13.889Z,99213.14
2018-09-13T02:55:42.354Z,99212.02
2018-09-13T02:58:10.707Z,99218.52
2018-09-13T03:00:39.058Z,99216.19
2018-09-13T03:03:07.423Z,99201.77
2018-09-13T03:05:35.718Z,99199.06
2018-09-13T03:08:04.117Z,99194.09
2018-09-13T03:10:32.620Z,99192.34
2018-09-13T03:13:01.012Z,99187.16
2018-09-13T03:15:29.311Z,99182.58
2018-09-13T03:17:57.718Z,99191.16
2018-09-13T03:20:26.082Z,99183.11
2018-09-13T03:22:54.386Z,99182.27
2018-09-13T03:25:22.806Z,99178.23
2018-09-13T03:27:51.252Z,99180.38
2018-09-13T03:30:19.641Z,99185.59
2018-09-13T03:32:48.102Z,99190.98
2018-09-13T03:35:16.547Z,99189.47
2018-09-13T03:37:44.930Z,99188.67
2018-09-13T03:40:13.306Z,99186.95
2018-09-13T03:42:41.726Z,99195.20
2018-09-13T03:45:10.070Z,99193.34
2018-09-13T03:47:38.396Z,99197.09
2018-09-13T03:50:07.925Z,99188.70
2018-09-13T03:52:36.339Z,99184.63
2018-09-13T03:55:04.681Z,99182.91
2018-09-13T03:57:33.190Z,99179.28
2018-09-13T04:00:01.508Z,99178.77
2018-09-13T04:02:30.012Z,99175.61
2018-09-13T04:04:58.444Z,99171.20
2018-09-13T04:07:26.881Z,99169.52
2018-09-13T04:09:55.625Z,99167.46
2018-09-13T04:12:23.966Z,99161.36
2018-09-13T04:14:52.247Z,99162.78
2018-09-13T04:17:20.564Z,99161.94
2018-09-13T04:19:48.985Z,99158.23
2018-09-13T04:22:17.931Z,99163.38
2018-09-13T04:24:46.256Z,99162.37
2018-09-13T04:27:14.990Z,99159.64
2018-09-13T04:29:43.679Z,99155.47
2018-09-13T04:32:12.041Z,99153.28
2018-09-13T04:34:40.653Z,99149.75
2018-09-13T04:37:09.327Z,99159.34
2018-09-13T04:39:37.625Z,99157.91
2018-09-13T04:42:05.987Z,99164.35
2018-09-13T04:44:34.289Z,99170.02
2018-09-13T04:47:02.651Z,99170.58
2018-09-13T04:49:30.929Z,99170.86
2018-09-13T04:51:59.338Z,99162.32
2018-09-13T04:54:27.655Z,99158.96
2018-09-13T04:56:55.984Z,99156.27
2018-09-13T04:59:24.306Z,99151.22
2018-09-13T05:01:52.667Z,99145.50
2018-09-13T05:04:21.007Z,99147.14
2018-09-13T05:06:49.597Z,99138.59
2018-09-13T05:09:18.372Z,99140.95
2018-09-13T05:11:46.861Z,99145.00
2018-09-13T05:14:15.407Z,99142.52
2018-09-13T05:16:46.358Z,99132.20
2018-09-13T05:19:14.705Z,99129.84
2018-09-13T05:21:43.215Z,99137.77
2018-09-13T05:24:11.687Z,99130.52
2018-09-13T05:26:40.060Z,99127.12
2018-09-13T05:29:08.415Z,99130.65
2018-09-13T05:31:36.831Z,99136.37
2018-09-13T05:34:05.180Z,99130.34
2018-09-13T05:36:36.206Z,99142.30
2018-09-13T05:39:07.244Z,99140.78
2018-09-13T05:41:35.980Z,99139.94
2018-09-13T05:44:05.098Z,99148.35
2018-09-13T05:46:33.479Z,99142.13
2018-09-13T05:49:03.286Z,99140.33
2018-09-13T05:51:31.659Z,99135.78
2018-09-13T05:54:00.015Z,99136.11
2018-09-13T05:56:28.418Z,99122.88
2018-09-13T05:58:57.222Z,99130.83
2018-09-13T06:01:25.575Z,99137.19
2018-09-13T06:03:53.862Z,99140.63
2018-09-13T06:06:57.438Z,99148.20
2018-09-13T06:09:25.751Z,99150.88
2018-09-13T06:11:54.127Z,99158.29
2018-09-13T06:14:22.432Z,99159.47
2018-09-13T06:16:50.805Z,99160.14
2018-09-13T06:19:19.155Z,99157.45
2018-09-13T06:21:47.516Z,99156.27
2018-09-13T06:24:15.836Z,99159.30
2018-09-13T06:26:44.235Z,99152.23
2018-09-13T06:29:12.551Z,99157.44
2018-09-13T06:31:40.862Z,99166.04
2018-09-13T06:34:09.154Z,99165.53
2018-09-13T06:36:37.512Z,99173.10
2018-09-13T06:39:07.900Z,99167.72
2018-09-13T06:41:36.522Z,99164.06
2018-09-13T06:44:04.940Z,99165.19
2018-09-13T06:46:33.358Z,99165.73
2018-09-13T06:49:01.699Z,99161.03
2018-09-13T06:51:30.050Z,99165.86
2018-09-13T06:53:58.449Z,99169.05
2018-09-13T06:56:26.849Z,99172.13
2018-09-13T06:58:55.154Z,99181.67
2018-09-13T07:01:23.454Z,99178.93
2018-09-13T07:03:51.808Z,99174.95
2018-09-13T07:06:20.190Z,99179.16
2018-09-13T07:08:48.568Z,99169.85
2018-09-13T07:11:16.939Z,99168.84
2018-09-13T07:13:45.315Z,99162.44
2018-09-13T07:16:13.621Z,99167.63
2018-09-13T07:18:41.980Z,99162.70
2018-09-13T07:21:10.261Z,99167.09
2018-09-13T07:23:38.710Z,99164.89
2018-09-13T07:26:07.127Z,99173.65
2018-09-13T07:28:35.538Z,99184.26
2018-09-13T07:31:03.845Z,99177.19
2018-09-13T07:33:32.177Z,99172.51
2018-09-13T07:36:00.499Z,99172.09
2018-09-13T07:38:28.935Z,99178.70
2018-09-13T07:40:57.307Z,99187.61
2018-09-13T07:43:25.683Z,99183.36
2018-09-13T07:45:54.022Z,99185.09
2018-09-13T07:48:22.340Z,99183.91
2018-09-13T07:50:50.763Z,99188.67
2018-09-13T07:53:19.055Z,99186.27
2018-09-13T07:55:47.725Z,99183.20
2018-09-13T07:58:16.143Z,99188.46
2018-09-13T08:00:44.506Z,99180.20
2018-09-13T08:03:13.045Z,99182.41
2018-09-13T08:05:42.390Z,99185.89
2018-09-13T08:08:10.713Z,99183.92
2018-09-13T08:10:39.094Z,99183.31
2018-09-13T08:13:07.549Z,99194.02
2018-09-13T08:15:36.137Z,99190.02
2018-09-13T08:18:04.562Z,99194.47
2018-09-13T08:20:32.934Z,99202.02
2018-09-13T08:23:01.239Z,99206.75
2018-09-13T08:25:29.745Z,99217.45
2018-09-13T08:27:58.135Z,99218.19
2018-09-13T08:30:26.476Z,99213.98
2018-09-13T08:32:54.835Z,99215.33
2018-09-13T08:35:23.243Z,99220.04
2018-09-13T08:37:51.599Z,99221.55
2018-09-13T08:40:20.065Z,99220.88
2018-09-13T08:42:48.431Z,99212.53
2018-09-13T08:45:16.850Z,99210.35
2018-09-13T08:47:45.216Z,99215.39
2018-09-13T08:50:13.622Z,99219.47
2018-09-13T08:52:42.020Z,99211.45
2018-09-13T08:55:10.964Z,99212.59
2018-09-13T08:57:40.143Z,99208.70
2018-09-13T09:00:11.047Z,99208.30
2018-09-13T09:02:39.758Z,99214.39
2018-09-13T09:05:08.452Z,99209.94
2018-09-13T09:07:37.568Z,99217.20
2018-09-13T09:10:06.049Z,99221.47
2018-09-13T09:12:34.445Z,99221.30
2018-09-13T09:15:02.792Z,99220.23
2018-09-13T09:17:31.153Z,99219.80
2018-09-13T09:19:59.570Z,99219.11
2018-09-13T09:22:27.958Z,99227.24
2018-09-13T09:24:56.826Z,99231.81
2018-09-13T09:27:25.508Z,99238.34
2018-09-13T09:29:53.925Z,99235.90
2018-09-13T09:32:22.250Z,99237.16
2018-09-13T09:34:50.650Z,99225.91
2018-09-13T09:37:19.116Z,99229.89
2018-09-13T09:39:47.481Z,99227.88
2018-09-13T09:42:15.806Z,99231.64
2018-09-13T09:44:44.342Z,99216.52
2018-09-13T09:47:12.817Z,99218.47
2018-09-13T09:49:41.245Z,99217.84
2018-09-13T09:52:09.962Z,99224.87
2018-09-13T09:54:38.265Z,99215.84
2018-09-13T09:57:06.609Z,99219.83
2018-09-13T09:59:35.036Z,99225.19
2018-09-13T10:02:09.137Z,99227.44
2018-09-13T10:04:39.528Z,99218.71
2018-09-13T10:07:10.460Z,99221.98
2018-09-13T10:09:39.050Z,99213.13
2018-09-13T10:12:07.467Z,99211.80
2018-09-13T10:14:35.822Z,99212.70
2018-09-13T10:17:10.489Z,99210.37
2018-09-13T10:19:44.285Z,99217.38
2018-09-13T10:22:18.261Z,99218.43
2018-09-13T10:24:51.974Z,99215.93
2018-09-13T10:27:25.574Z,99228.56
2018-09-13T10:29:59.182Z,99217.19
2018-09-13T10:32:33.038Z,99220.37
2018-09-13T10:35:06.816Z,99222.45
2018-09-13T10:37:40.562Z,99226.40
2018-09-13T10:40:14.438Z,99225.59
2018-09-13T10:42:48.143Z,99226.91
2018-09-13T10:46:25.771Z,99223.43
2018-09-13T10:48:59.495Z,99227.16
2018-09-13T10:51:32.949Z,99226.30
2018-09-13T10:55:08.654Z,99228.91
2018-09-13T10:57:44.206Z,99227.14
2018-09-13T11:00:13.346Z,99225.73
2018-09-13T11:02:41.783Z,99220.48
2018-09-13T11:05:10.238Z,99214.59
2018-09-13T11:07:38.603Z,99217.90
2018-09-13T11:10:07.234Z,99217.14
2018-09-13T11:12:43.833Z,99213.22
2018-09-13T11:15:20.335Z,99210.51
2018-09-13T11:17:48.747Z,99218.97
2018-09-13T11:20:17.078Z,99221.77
2018-09-13T11:22:48.339Z,99222.55
2018-09-13T11:25:16.695Z,99224.14
2018-09-13T11:27:45.327Z,99224.39
2018-09-13T11:30:13.720Z,99219.92
2018-09-13T11:32:42.109Z,99221.54
2018-09-13T11:35:10.528Z,99230.77
2018-09-13T11:37:39.054Z,99235.38
2018-09-13T11:40:07.541Z,99229.73
2018-09-13T11:42:35.955Z,99228.70
2018-09-13T11:45:04.593Z,99227.70
2018-09-13T11:47:32.932Z,99225.20
2018-09-13T11:50:01.308Z,99214.34
2018-09-13T11:52:29.669Z,99213.07
2018-09-13T11:54:58.270Z,99210.47
2018-09-13T11:57:26.614Z,99211.54
2018-09-13T11:59:55.084Z,99208.70
2018-09-13T12:02:23.432Z,99210.89
2018-09-13T12:04:51.774Z,99207.27
2018-09-13T12:07:20.109Z,99204.47
2018-09-13T12:09:48.470Z,99205.69
2018-09-13T12:12:16.866Z,99204.72
2018-09-13T12:14:45.250Z,99197.08
2018-09-13T12:17:13.638Z,99198.77
2018-09-13T12:19:41.968Z,99191.39
2018-09-13T12:22:10.346Z,99193.39
2018-09-13T12:24:38.731Z,99192.45
2018-09-13T12:27:07.062Z,99188.31
2018-09-13T12:29:35.378Z,99188.25
2018-09-13T12:32:03.728Z,99191.03
2018-09-13T12:34:32.162Z,99189.59
2018-09-13T12:37:00.499Z,99198.48
2018-09-13T12:39:29.020Z,99190.20
2018-09-13T12:41:57.357Z,99185.08
2018-09-13T12:44:25.739Z,99190.69
2018-09-13T12:46:54.103Z,99187.56
2018-09-13T12:49:22.427Z,99186.84
2018-09-13T12:51:50.808Z,99188.84
2018-09-13T12:54:19.186Z,99190.55
2018-09-13T12:56:47.590Z,99190.51
2018-09-13T12:59:15.996Z,99180.92
2018-09-13T13:01:44.564Z,99183.36
2018-09-13T13:04:12.932Z,99183.40
2018-09-13T13:06:41.386Z,99191.95
2018-09-13T13:09:10.541Z,99190.30
2018-09-13T13:11:38.912Z,99181.63
2018-09-13T13:14:07.347Z,99191.00
2018-09-13T13:16:35.751Z,99186.82
2018-09-13T13:19:04.087Z,99184.14
2018-09-13T13:21:32.437Z,99191.44
2018-09-13T13:24:00.788Z,99199.41
2018-09-13T13:26:29.140Z,99198.30
2018-09-13T13:28:57.491Z,99197.92
2018-09-13T13:31:25.830Z,99195.88
2018-09-13T13:33:54.257Z,99183.66
2018-09-13T13:36:22.766Z,99177.81
2018-09-13T13:38:51.117Z,99180.89
2018-09-13T13:41:19.525Z,99177.52
2018-09-13T13:43:48.166Z,99175.33
2018-09-13T13:46:16.734Z,99171.45
2018-09-13T13:48:45.170Z,99171.53
2018-09-13T13:51:13.607Z,99166.29
2018-09-13T13:53:41.965Z,99156.03
2018-09-13T13:56:10.292Z,99149.80
2018-09-13T13:58:39.261Z,99152.26
2018-09-13T14:01:07.794Z,99163.19
2018-09-13T14:03:36.168Z,99164.38
2018-09-13T14:06:04.546Z,99164.89
2018-09-13T14:08:32.892Z,99161.67
2018-09-13T14:11:01.350Z,99169.69
2018-09-13T14:13:29.837Z,99162.35
2018-09-13T14:15:58.249Z,99159.83
2018-09-13T14:18:26.626Z,99161.75
2018-09-13T14:20:55.025Z,99155.11
2018-09-13T14:23:23.404Z,99166.08
2018-09-13T14:25:51.767Z,99160.61
2018-09-13T14:28:20.138Z,99163.30
2018-09-13T14:30:50.507Z,99168.98
2018-09-13T14:33:18.957Z,99172.02
2018-09-13T14:35:47.920Z,99168.05
2018-09-13T14:38:16.535Z,99156.13
2018-09-13T14:40:45.444Z,99149.85
2018-09-13T14:43:13.966Z,99155.75
2018-09-13T14:45:42.513Z,99147.11
2018-09-13T14:48:12.325Z,99144.41
2018-09-13T14:50:42.692Z,99134.58
2018-09-13T14:53:11.467Z,99134.95
2018-09-13T14:55:41.959Z,99129.50
2018-09-13T14:58:12.523Z,99127.66
2018-09-13T15:00:41.062Z,99129.91
2018-09-13T15:03:09.864Z,99124.34
2018-09-13T15:05:39.079Z,99126.56
2018-09-13T15:08:08.445Z,99126.48
2018-09-13T15:10:42.552Z,99122.28
2018-09-13T15:13:11.831Z,99125.44
2018-09-13T15:15:40.415Z,99130.39
2018-09-13T15:18:09.498Z,99125.61
2018-09-13T15:20:37.896Z,99128.66
2018-09-13T15:23:09.250Z,99137.09
2018-09-13T15:25:39.367Z,99135.19
2018-09-13T15:28:10.273Z,99130.53
2018-09-13T15:30:40.274Z,99135.01
2018-09-13T15:33:10.843Z,99134.69
2018-09-13T15:35:41.872Z,99139.58
2018-09-13T15:38:15.315Z,99149.33
2018-09-13T15:40:45.290Z,99147.50
2018-09-13T15:43:14.267Z,99141.30
2018-09-13T15:45:43.786Z,99150.25
2018-09-13T15:48:12.759Z,99152.67
2018-09-13T15:50:43.310Z,99154.71
2018-09-13T15:53:12.573Z,99156.45
2018-09-13T15:55:41.358Z,99155.64
2018-09-13T15:58:12.511Z,99158.80
2018-09-13T16:00:42.446Z,99158.67
2018-09-13T16:03:10.996Z,99156.92
2018-09-13T16:05:39.598Z,99148.70
2018-09-13T16:08:08.400Z,99149.20
2018-09-13T16:10:36.991Z,99148.55
2018-09-13T16:13:05.897Z,99151.10
2018-09-13T16:15:35.048Z,99154.24
2018-09-13T16:18:03.757Z,99145.88
2018-09-13T16:20:33.613Z,99149.08
2018-09-13T16:23:02.249Z,99142.40
2018-09-13T16:25:30.633Z,99145.27
2018-09-13T16:28:00.029Z,99146.45
2018-09-13T16:30:28.741Z,99143.38
2018-09-13T16:32:58.239Z,99145.73
2018-09-13T16:35:27.243Z,99147.06
2018-09-13T16:38:01.241Z,99147.41
2018-09-13T16:41:35.909Z,99143.84
2018-09-13T16:44:06.193Z,99146.87
2018-09-13T16:46:39.965Z,99157.70
2018-09-13T16:49:09.611Z,99157.05
2018-09-13T16:51:38.547Z,99157.39
2018-09-13T16:54:07.133Z,99153.67
2018-09-13T16:56:35.910Z,99156.80
2018-09-13T16:59:04.650Z,99158.83
2018-09-13T17:01:33.004Z,99171.98
2018-09-13T17:04:01.373Z,99166.88
2018-09-13T17:06:29.688Z,99171.28
2018-09-13T17:08:58.015Z,99169.55
2018-09-13T17:11:26.348Z,99174.49
2018-09-13T17:13:54.868Z,99167.53
2018-09-13T17:16:23.227Z,99171.39
2018-09-13T17:18:51.735Z,99176.95
2018-09-13T17:21:20.133Z,99176.31
2018-09-13T17:23:48.632Z,99170.94
2018-09-13T17:26:16.981Z,99175.42
2018-09-13T17:28:45.626Z,99171.09
2018-09-13T17:31:13.971Z,99170.25
2018-09-13T17:33:42.388Z,99174.00
2018-09-13T17:36:10.778Z,99173.86
2018-09-13T17:38:39.159Z,99176.69
2018-09-13T17:41:07.510Z,99177.08
2018-09-13T17:43:35.970Z,99176.08
2018-09-13T17:46:04.371Z,99182.09
2018-09-13T17:48:32.799Z,99177.06
2018-09-13T17:51:01.082Z,99184.32
2018-09-13T17:53:29.437Z,99186.19
2018-09-13T17:55:57.869Z,99183.59
2018-09-13T17:58:26.363Z,99183.17
2018-09-13T18:00:54.822Z,99177.73
2018-09-13T18:03:23.271Z,99180.56
2018-09-13T18:05:52.129Z,99175.58
2018-09-13T18:08:20.591Z,99179.99
2018-09-13T18:10:48.953Z,99179.34
2018-09-13T18:13:17.431Z,99188.65
2018-09-13T18:15:45.736Z,99186.05
2018-09-13T18:18:14.354Z,99187.80
2018-09-13T18:20:42.663Z,99193.83
2018-09-13T18:23:11.226Z,99193.21
2018-09-13T18:25:40.663Z,99196.40
2018-09-13T18:28:09.223Z,99196.40
2018-09-13T18:30:37.695Z,99197.81
2018-09-13T18:33:06.115Z,99198.73
2018-09-13T18:35:34.478Z,99197.36
2018-09-13T18:38:03.183Z,99197.24
2018-09-13T18:40:31.557Z,99201.69
2018-09-13T18:42:59.850Z,99207.35
2018-09-13T18:45:28.544Z,99206.33
2018-09-13T18:47:57.283Z,99208.02
2018-09-13T18:50:25.719Z,99210.50
2018-09-13T18:52:55.493Z,99209.89
2018-09-13T18:55:23.973Z,99201.64
2018-09-13T18:57:52.487Z,99207.92
2018-09-13T19:00:20.896Z,99212.15
2018-09-13T19:02:49.514Z,99208.08
2018-09-13T19:05:17.991Z,99206.04
2018-09-13T19:07:46.657Z,99210.06
2018-09-13T19:10:15.420Z,99209.67
2018-09-13T19:12:44.361Z,99205.34
2018-09-13T19:15:13.487Z,99205.00
2018-09-13T19:17:42.802Z,99210.06
2018-09-13T19:20:11.262Z,99208.00
2018-09-13T19:22:39.814Z,99205.86
2018-09-13T19:25:08.455Z,99205.94
2018-09-13T19:27:36.984Z,99209.54
2018-09-13T19:30:05.635Z,99209.54
2018-09-13T19:32:34.177Z,99213.36
2018-09-13T19:35:02.736Z,99210.52
2018-09-13T19:37:31.314Z,99214.75
2018-09-13T19:39:59.948Z,99213.78
2018-09-13T19:42:29.178Z,99216.32
2018-09-13T19:44:57.700Z,99218.76
2018-09-13T19:47:26.189Z,99214.54
2018-09-13T19:49:55.300Z,99217.67
2018-09-13T19:52:24.230Z,99214.48
2018-09-13T19:54:53.039Z,99212.45
2018-09-13T19:57:22.551Z,99209.22
2018-09-13T19:59:51.069Z,99217.94
2018-09-13T20:02:19.592Z,99224.11
2018-09-13T20:04:48.728Z,99225.98
2018-09-13T20:07:17.252Z,99224.98
2018-09-13T20:09:45.761Z,99226.11
2018-09-13T20:12:14.168Z,99221.73
2018-09-13T20:14:42.819Z,99222.61
2018-09-13T20:17:11.359Z,99216.77
2018-09-13T20:19:39.782Z,99210.91
2018-09-13T20:22:09.255Z,99210.53
2018-09-13T20:24:37.101Z,99212.91
2018-09-13T20:27:05.707Z,99209.89
2018-09-13T20:29:34.218Z,99215.02
2018-09-13T20:32:02.667Z,99208.72
2018-09-13T20:34:31.031Z,99203.78
2018-09-13T20:36:59.450Z,99214.56
2018-09-13T20:39:27.905Z,99207.35
2018-09-13T20:41:57.228Z,99206.09
2018-09-13T20:44:25.671Z,99209.19
2018-09-13T20:46:54.574Z,99208.28
2018-09-13T20:49:23.380Z,99213.05
2018-09-13T20:51:51.756Z,99215.68
2018-09-13T20:54:20.242Z,99215.55
2018-09-13T20:56:48.561Z,99214.79
2018-09-13T20:59:16.928Z,99219.50
2018-09-13T21:01:45.308Z,99219.90
2018-09-13T21:04:13.635Z,99217.98
2018-09-13T21:06:42.002Z,99222.83
2018-09-13T21:09:11.686Z,99223.63
2018-09-13T21:11:40.452Z,99225.02
2018-09-13T21:14:08.831Z,99226.11
2018-09-13T21:16:37.170Z,99224.30
2018-09-13T21:19:05.580Z,99231.23
2018-09-13T21:21:33.945Z,99229.83
2018-09-13T21:24:02.396Z,99231.42
2018-09-13T21:26:30.716Z,99225.86
2018-09-13T21:28:59.067Z,99227.45
2018-09-13T21:31:27.512Z,99221.20
2018-09-13T21:33:55.845Z,99227.05
2018-09-13T21:36:24.306Z,99221.84
2018-09-13T21:38:52.640Z,99229.83
2018-09-13T21:41:21.038Z,99225.52
2018-09-13T21:43:49.339Z,99229.89
2018-09-13T21:46:17.733Z,99224.54
2018-09-13T21:48:46.126Z,99226.52
2018-09-13T21:51:14.429Z,99225.16
2018-09-13T21:53:42.799Z,99225.23
2018-09-13T21:56:11.140Z,99221.94
2018-09-13T21:58:39.527Z,99224.52
2018-09-13T22:01:07.843Z,99224.09
2018-09-13T22:03:36.286Z,99219.01
2018-09-13T22:06:04.620Z,99221.49
2018-09-13T22:08:32.990Z,99225.09
2018-09-13T22:11:01.315Z,99225.02
2018-09-13T22:13:32.270Z,99224.94
2018-09-13T22:16:01.655Z,99224.86
2018-09-13T22:18:30.163Z,99223.25
2018-09-13T22:20:58.463Z,99222.80
2018-09-13T22:23:26.850Z,99227.47
2018-09-13T22:25:55.190Z,99222.84
2018-09-13T22:28:23.559Z,99222.34
2018-09-13T22:30:51.987Z,99231.97
2018-09-13T22:33:20.349Z,99228.80
2018-09-13T22:35:48.727Z,99238.05
2018-09-13T22:38:17.191Z,99238.92
2018-09-13T22:40:45.531Z,99237.89
2018-09-13T22:43:13.978Z,99241.97
2018-09-13T22:45:42.291Z,99234.13
2018-09-13T22:48:10.651Z,99235.36
2018-09-13T22:50:39.025Z,99234.13
2018-09-13T22:53:07.350Z,99235.91
2018-09-13T22:55:35.735Z,99233.53
2018-09-13T22:58:04.084Z,99226.36
2018-09-13T23:00:32.412Z,99221.95
2018-09-13T23:03:00.746Z,99224.09
2018-09-13T23:05:29.075Z,99229.26
2018-09-13T23:07:57.415Z,99223.75
2018-09-13T23:10:25.818Z,99226.08
2018-09-13T23:12:54.183Z,99234.72
2018-09-13T23:15:22.752Z,99238.24
2018-09-13T23:17:51.136Z,99235.91
2018-09-13T23:20:19.402Z,99240.08
2018-09-13T23:22:47.752Z,99240.44
2018-09-13T23:25:16.080Z,99241.23
2018-09-13T23:27:44.469Z,99241.47
2018-09-13T23:30:12.890Z,99240.14
2018-09-13T23:32:41.288Z,99240.44
2018-09-13T23:35:09.589Z,99244.11
2018-09-13T23:37:37.872Z,99239.05
2018-09-13T23:40:06.306Z,99241.82
2018-09-13T23:42:34.602Z,99239.63
2018-09-13T23:45:02.881Z,99237.65
2018-09-13T23:47:31.312Z,99238.72
2018-09-13T23:49:59.646Z,99244.59
2018-09-13T23:52:27.951Z,99242.22
2018-09-13T23:54:56.283Z,99240.53
2018-09-13T23:57:24.686Z,99237.80
2018-09-13T23:59:53.049Z,99243.79
